createdAt,value
2022-12-27T00:01:20.136Z,1.77
2022-12-27T00:04:21.650Z,1.98
2022-12-27T00:07:22.991Z,2.00
2022-12-27T00:10:24.413Z,2.47
2022-12-27T00:13:25.765Z,1.65
2022-12-27T00:16:29.326Z,2.60
2022-12-27T00:19:30.830Z,1.80
2022-12-27T00:22:32.169Z,2.72
2022-12-27T00:25:34.208Z,2.53
2022-12-27T00:28:35.827Z,5.18
2022-12-27T00:31:37.968Z,4.45
2022-12-27T00:34:39.518Z,2.00
2022-12-27T00:37:41.409Z,3.17
2022-12-27T00:40:42.971Z,2.13
2022-12-27T00:43:45.012Z,1.65
2022-12-27T00:46:46.352Z,1.98
2022-12-27T00:49:47.680Z,3.10
2022-12-27T00:52:49.356Z,3.65
2022-12-27T00:55:52.132Z,2.65
2022-12-27T00:59:04.506Z,2.97
2022-12-27T01:02:05.892Z,2.55
2022-12-27T01:05:08.392Z,1.90
2022-12-27T01:08:10.016Z,2.17
2022-12-27T01:11:12.312Z,2.10
2022-12-27T01:14:13.857Z,2.10
2022-12-27T01:17:15.237Z,2.53
2022-12-27T01:20:17.250Z,1.70
2022-12-27T01:23:18.616Z,2.05
2022-12-27T01:26:22.149Z,2.22
2022-12-27T01:29:23.514Z,2.33
2022-12-27T01:32:24.961Z,1.83
2022-12-27T01:35:26.333Z,2.05
2022-12-27T01:38:27.686Z,2.08
2022-12-27T01:41:49.508Z,2.53
2022-12-27T01:44:57.972Z,1.90
2022-12-27T01:48:34.654Z,2.00
2022-12-27T01:51:36.049Z,2.10
2022-12-27T01:54:37.859Z,1.90
2022-12-27T01:57:39.991Z,1.90
2022-12-27T02:00:44.460Z,1.95
2022-12-27T02:03:53.472Z,1.90
2022-12-27T02:06:55.029Z,2.60
2022-12-27T02:09:58.971Z,1.52
2022-12-27T02:13:01.071Z,1.85
2022-12-27T02:16:13.675Z,1.80
2022-12-27T02:19:33.137Z,1.77
2022-12-27T02:22:52.749Z,2.45
2022-12-27T02:26:15.915Z,1.80
2022-12-27T02:29:55.575Z,1.88
2022-12-27T02:33:04.500Z,1.90
2022-12-27T02:36:11.958Z,2.83
2022-12-27T02:39:15.049Z,2.85
2022-12-27T02:42:18.387Z,2.00
2022-12-27T02:48:25.865Z,2.38
2022-12-27T02:52:03.150Z,2.05
2022-12-27T02:55:24.533Z,1.70
2022-12-27T02:58:48.808Z,2.20
2022-12-27T03:02:11.850Z,2.15
2022-12-27T03:05:51.565Z,2.20
2022-12-27T03:08:57.805Z,2.33
2022-12-27T03:11:59.262Z,2.97
2022-12-27T03:15:08.536Z,2.75
2022-12-27T03:18:16.740Z,2.47
2022-12-27T03:21:25.747Z,3.00
2022-12-27T03:24:32.887Z,2.35
2022-12-27T03:27:36.798Z,2.95
2022-12-27T03:30:40.152Z,2.80
2022-12-27T03:36:44.022Z,2.88
2022-12-27T03:39:54.441Z,2.83
2022-12-27T03:43:04.981Z,3.53
2022-12-27T03:46:17.287Z,3.05
2022-12-27T03:49:38.788Z,2.65
2022-12-27T03:52:48.464Z,2.78
2022-12-27T03:55:50.227Z,2.33
2022-12-27T03:58:52.823Z,3.03
2022-12-27T04:01:54.595Z,2.80
2022-12-27T04:04:56.089Z,2.67
2022-12-27T04:07:57.450Z,2.60
2022-12-27T04:10:58.874Z,2.35
2022-12-27T04:14:00.244Z,2.58
2022-12-27T04:17:01.651Z,2.90
2022-12-27T04:20:03.128Z,3.28
2022-12-27T04:23:05.028Z,2.60
2022-12-27T04:26:06.490Z,2.88
2022-12-27T04:29:07.975Z,3.42
2022-12-27T04:32:09.311Z,2.63
2022-12-27T04:35:10.717Z,3.05
2022-12-27T04:38:12.068Z,3.00
2022-12-27T04:41:13.464Z,2.90
2022-12-27T04:44:14.808Z,2.78
2022-12-27T04:47:19.358Z,2.92
2022-12-27T04:50:30.488Z,3.35
2022-12-27T04:53:32.417Z,2.70
2022-12-27T04:56:33.809Z,3.08
2022-12-27T04:59:35.136Z,2.35
2022-12-27T05:02:37.050Z,2.00
2022-12-27T05:05:39.347Z,3.25
2022-12-27T05:08:41.462Z,2.35
2022-12-27T05:11:42.827Z,2.17
2022-12-27T05:14:44.192Z,2.20
2022-12-27T05:17:45.540Z,2.42
2022-12-27T05:20:46.917Z,2.20
2022-12-27T05:23:48.267Z,2.53
2022-12-27T05:26:49.661Z,2.30
2022-12-27T05:29:50.991Z,2.35
2022-12-27T05:32:56.095Z,1.98
2022-12-27T05:35:58.709Z,2.58
2022-12-27T05:39:00.102Z,2.63
2022-12-27T05:42:01.748Z,2.47
2022-12-27T05:45:03.684Z,2.55
2022-12-27T05:48:05.345Z,2.45
2022-12-27T05:51:15.850Z,2.75
2022-12-27T05:54:17.238Z,2.15
2022-12-27T05:57:18.609Z,2.47
2022-12-27T06:00:19.949Z,2.30
2022-12-27T06:03:22.150Z,2.60
2022-12-27T06:06:23.773Z,2.53
2022-12-27T06:09:26.180Z,2.53
2022-12-27T06:12:27.571Z,2.60
2022-12-27T06:15:29.248Z,2.65
2022-12-27T06:18:32.624Z,2.70
2022-12-27T06:24:35.297Z,2.95
2022-12-27T06:27:36.799Z,2.80
2022-12-27T06:30:38.151Z,2.53
2022-12-27T06:33:39.547Z,2.63
2022-12-27T06:36:40.923Z,2.75
2022-12-27T06:39:42.299Z,2.47
2022-12-27T06:42:43.744Z,2.55
2022-12-27T06:45:45.209Z,2.58
2022-12-27T06:48:47.205Z,2.83
2022-12-27T06:51:52.619Z,3.05
2022-12-27T06:54:57.342Z,2.88
2022-12-27T06:57:58.757Z,2.10
2022-12-27T07:01:09.718Z,2.33
2022-12-27T07:04:12.030Z,2.80
2022-12-27T07:07:16.064Z,2.47
2022-12-27T07:10:17.707Z,2.70
2022-12-27T07:13:19.058Z,2.80
2022-12-27T07:16:23.655Z,2.42
2022-12-27T07:19:25.038Z,2.38
2022-12-27T07:22:27.443Z,2.60
2022-12-27T07:25:29.060Z,2.30
2022-12-27T07:28:30.955Z,2.13
2022-12-27T07:31:32.812Z,2.05
2022-12-27T07:34:34.198Z,2.92
2022-12-27T07:37:35.580Z,1.88
2022-12-27T07:40:37.858Z,2.63
2022-12-27T07:43:40.340Z,1.73
2022-12-27T07:46:43.522Z,2.03
2022-12-27T07:49:44.936Z,1.80
2022-12-27T07:52:46.328Z,2.00
2022-12-27T07:55:48.043Z,1.95
2022-12-27T07:58:50.579Z,2.30
2022-12-27T08:01:51.997Z,2.23
2022-12-27T08:04:53.378Z,2.15
2022-12-27T08:07:54.800Z,2.10
2022-12-27T08:11:00.562Z,2.20
2022-12-27T08:14:05.073Z,1.80
2022-12-27T08:17:25.749Z,1.90
2022-12-27T08:20:27.079Z,2.10
2022-12-27T08:23:28.460Z,2.22
2022-12-27T08:26:29.856Z,2.53
2022-12-27T08:29:31.376Z,2.30
2022-12-27T08:32:32.727Z,1.90
2022-12-27T08:35:52.763Z,2.78
2022-12-27T08:38:55.517Z,2.65
2022-12-27T08:41:56.905Z,2.53
2022-12-27T08:44:58.233Z,2.28
2022-12-27T08:48:00.763Z,2.38
2022-12-27T08:51:12.318Z,2.70
2022-12-27T08:54:14.146Z,2.25
2022-12-27T08:57:15.524Z,2.80
2022-12-27T09:00:17.269Z,2.42
2022-12-27T09:03:20.013Z,3.10
2022-12-27T09:06:23.539Z,2.80
2022-12-27T09:09:24.904Z,3.15
2022-12-27T09:12:26.261Z,2.65
2022-12-27T09:15:27.657Z,2.28
2022-12-27T09:18:29.047Z,2.13
2022-12-27T09:21:32.340Z,2.20
2022-12-27T09:24:33.692Z,2.40
2022-12-27T09:27:38.281Z,2.72
2022-12-27T09:30:39.628Z,2.38
2022-12-27T09:33:41.745Z,2.60
2022-12-27T09:36:43.129Z,2.45
2022-12-27T09:39:44.491Z,1.92
2022-12-27T09:43:11.844Z,2.08
2022-12-27T09:46:27.712Z,2.45
2022-12-27T09:49:47.301Z,2.33
2022-12-27T09:52:59.235Z,2.25
2022-12-27T09:56:00.687Z,2.03
2022-12-27T09:59:37.245Z,2.58
2022-12-27T10:02:38.704Z,2.83
2022-12-27T10:05:45.792Z,2.72
2022-12-27T10:09:00.326Z,2.05
2022-12-27T10:12:20.113Z,2.35
2022-12-27T10:15:40.198Z,1.92
2022-12-27T10:19:01.101Z,1.98
2022-12-27T10:22:33.636Z,2.08
2022-12-27T10:25:37.417Z,1.75
2022-12-27T10:28:42.844Z,1.65
2022-12-27T10:31:44.900Z,1.30
2022-12-27T10:34:58.625Z,1.20
2022-12-27T10:41:29.819Z,2.05
2022-12-27T10:44:31.215Z,2.10
2022-12-27T10:47:32.650Z,1.80
2022-12-27T10:50:34.069Z,2.10
2022-12-27T10:53:55.651Z,2.10
2022-12-27T10:57:16.528Z,1.85
2022-12-27T11:00:22.996Z,2.30
2022-12-27T11:03:24.391Z,2.10
2022-12-27T11:06:25.887Z,1.80
2022-12-27T11:09:30.215Z,1.75
2022-12-27T11:12:31.594Z,1.60
2022-12-27T11:15:36.464Z,1.42
2022-12-27T11:18:45.787Z,2.30
2022-12-27T11:21:47.216Z,1.83
2022-12-27T11:24:51.274Z,2.00
2022-12-27T11:27:57.751Z,1.45
2022-12-27T11:31:02.691Z,1.65
2022-12-27T11:34:15.323Z,2.53
2022-12-27T11:37:20.019Z,2.13
2022-12-27T11:40:29.642Z,1.83
2022-12-27T11:43:38.507Z,2.00
2022-12-27T11:47:01.541Z,1.60
2022-12-27T11:50:24.937Z,1.90
2022-12-27T11:53:50.940Z,2.60
2022-12-27T11:57:06.369Z,2.10
2022-12-27T12:00:21.862Z,1.98
2022-12-27T12:03:35.448Z,1.98
2022-12-27T12:07:11.465Z,2.45
2022-12-27T12:10:45.180Z,2.75
2022-12-27T12:13:58.777Z,2.33
2022-12-27T12:20:30.865Z,2.05
2022-12-27T12:23:50.329Z,2.80
2022-12-27T12:27:10.639Z,3.17
2022-12-27T12:31:03.384Z,3.05
2022-12-27T12:34:47.765Z,2.72
2022-12-27T12:38:09.353Z,2.25
2022-12-27T12:41:37.325Z,2.28
2022-12-27T12:45:14.806Z,2.38
2022-12-27T12:48:27.964Z,2.10
2022-12-27T12:51:44.121Z,2.40
2022-12-27T12:54:57.307Z,1.83
2022-12-27T12:58:05.604Z,1.65
2022-12-27T13:01:25.804Z,1.83
2022-12-27T13:04:27.318Z,1.98
2022-12-27T13:07:49.738Z,2.35
2022-12-27T13:11:12.795Z,2.03
2022-12-27T13:14:42.154Z,2.40
2022-12-27T13:18:17.380Z,2.45
2022-12-27T13:21:34.191Z,2.30
2022-12-27T13:24:54.815Z,3.42
2022-12-27T13:28:33.809Z,2.50
2022-12-27T13:31:51.731Z,3.20
2022-12-27T13:35:19.750Z,3.53
2022-12-27T13:38:35.563Z,3.75
2022-12-27T13:41:58.010Z,3.90
2022-12-27T13:45:05.535Z,3.33
2022-12-27T13:48:26.242Z,2.83
2022-12-27T13:51:47.678Z,5.47
2022-12-27T13:55:01.324Z,4.00
2022-12-27T14:01:45.774Z,2.50
2022-12-27T14:05:02.178Z,3.38
2022-12-27T14:08:07.197Z,3.90
2022-12-27T14:11:21.786Z,2.92
2022-12-27T14:14:25.536Z,4.30
2022-12-27T14:17:50.605Z,4.75
2022-12-27T14:21:22.472Z,7.35
2022-12-27T14:24:32.824Z,5.85
2022-12-27T14:28:03.519Z,4.28
2022-12-27T14:31:10.967Z,3.05
2022-12-27T14:34:57.394Z,4.88
2022-12-27T14:38:31.571Z,2.60
2022-12-27T14:42:14.474Z,2.92
2022-12-27T14:45:58.193Z,2.28
2022-12-27T14:49:37.038Z,2.97
2022-12-27T14:52:46.877Z,2.58
2022-12-27T14:55:57.417Z,4.22
2022-12-27T14:59:10.694Z,4.30
2022-12-27T15:02:43.880Z,3.42
2022-12-27T15:06:00.546Z,6.88
2022-12-27T15:09:27.517Z,5.82
2022-12-27T15:12:38.057Z,3.00
2022-12-27T15:16:15.031Z,4.47
2022-12-27T15:19:47.840Z,3.92
2022-12-27T15:23:11.990Z,3.28
2022-12-27T15:26:22.786Z,3.33
2022-12-27T15:29:36.080Z,3.55
2022-12-27T15:32:53.635Z,11.43
2022-12-27T15:36:27.139Z,3.90
2022-12-27T15:39:34.619Z,3.60
2022-12-27T15:43:17.759Z,3.55
2022-12-27T15:46:43.695Z,3.55
2022-12-27T15:50:17.587Z,3.83
2022-12-27T15:53:36.831Z,3.92
2022-12-27T15:56:59.947Z,3.60
2022-12-27T16:00:16.830Z,4.53
2022-12-27T16:03:37.709Z,4.40
2022-12-27T16:06:50.159Z,4.40
2022-12-27T16:09:51.896Z,4.80
2022-12-27T16:12:55.540Z,4.38
2022-12-27T16:15:57.784Z,5.75
2022-12-27T16:19:40.405Z,4.78
2022-12-27T16:22:51.464Z,5.55
2022-12-27T16:26:05.417Z,4.78
2022-12-27T16:29:16.641Z,5.38
2022-12-27T16:32:21.830Z,6.38
2022-12-27T16:35:23.497Z,5.60
2022-12-27T16:38:33.119Z,5.22
2022-12-27T16:41:49.772Z,6.22
2022-12-27T16:44:54.013Z,9.10
2022-12-27T16:48:01.585Z,7.43
2022-12-27T16:51:08.647Z,6.80
2022-12-27T16:54:31.075Z,6.72
2022-12-27T16:57:44.038Z,6.70
2022-12-27T17:00:53.630Z,5.88
2022-12-27T17:03:58.788Z,5.80
2022-12-27T17:07:00.213Z,6.05
2022-12-27T17:10:32.161Z,5.72
2022-12-27T17:13:43.955Z,6.35
2022-12-27T17:16:53.333Z,7.03
2022-12-27T17:20:02.443Z,6.53
2022-12-27T17:23:04.867Z,6.85
2022-12-27T17:26:44.344Z,6.40
2022-12-27T17:30:25.243Z,6.63
2022-12-27T17:33:53.044Z,6.90
2022-12-27T17:37:23.817Z,7.75
2022-12-27T17:40:43.148Z,7.93
2022-12-27T17:43:52.995Z,7.05
2022-12-27T17:47:01.948Z,8.25
2022-12-27T17:50:14.207Z,8.45
2022-12-27T17:53:18.406Z,7.90
2022-12-27T17:56:21.969Z,9.10
2022-12-27T17:59:25.203Z,10.27
2022-12-27T18:02:33.620Z,10.18
2022-12-27T18:05:41.529Z,9.32
2022-12-27T18:08:42.909Z,8.70
2022-12-27T18:11:44.320Z,9.15
2022-12-27T18:14:55.556Z,9.07
2022-12-27T18:18:08.233Z,11.98
2022-12-27T18:21:21.179Z,11.07
2022-12-27T18:24:32.258Z,10.98
2022-12-27T18:27:33.615Z,12.10
2022-12-27T18:30:47.860Z,11.40
2022-12-27T18:33:58.527Z,12.10
2022-12-27T18:37:06.309Z,12.73
2022-12-27T18:40:20.103Z,10.32
2022-12-27T18:43:21.534Z,11.77
2022-12-27T18:46:32.962Z,10.75
2022-12-27T18:49:36.618Z,11.60
2022-12-27T18:52:40.409Z,12.40
2022-12-27T18:55:59.400Z,10.63
2022-12-27T18:59:16.185Z,11.07
2022-12-27T19:02:36.775Z,11.45
2022-12-27T19:05:38.610Z,12.00
2022-12-27T19:08:46.158Z,10.65
2022-12-27T19:11:53.232Z,11.55
2022-12-27T19:14:54.859Z,11.45
2022-12-27T19:18:02.146Z,12.25
2022-12-27T19:21:05.739Z,11.38
2022-12-27T19:24:20.553Z,12.27
2022-12-27T19:27:23.717Z,11.27
2022-12-27T19:30:47.580Z,11.20
2022-12-27T19:36:55.146Z,11.50
2022-12-27T19:39:57.483Z,11.93
2022-12-27T19:42:58.869Z,13.77
2022-12-27T19:46:00.246Z,11.18
2022-12-27T19:52:25.802Z,12.60
2022-12-27T19:55:27.516Z,11.77
2022-12-27T19:58:30.602Z,12.10
2022-12-27T20:01:32.131Z,12.52
2022-12-27T20:04:33.609Z,11.55
2022-12-27T20:07:35.387Z,12.88
2022-12-27T20:10:36.745Z,12.15
2022-12-27T20:13:38.077Z,12.35
2022-12-27T20:16:41.064Z,13.20
2022-12-27T20:19:42.485Z,14.45
2022-12-27T20:22:43.817Z,12.02
2022-12-27T20:25:47.287Z,11.15
2022-12-27T20:28:49.673Z,12.25
2022-12-27T20:31:51.089Z,11.40
2022-12-27T20:34:52.462Z,10.73
2022-12-27T20:37:53.843Z,11.68
2022-12-27T20:40:55.220Z,11.20
2022-12-27T20:43:57.615Z,12.25
2022-12-27T20:46:59.159Z,11.00
2022-12-27T20:50:00.535Z,14.40
2022-12-27T20:53:01.966Z,13.35
2022-12-27T20:56:06.559Z,13.73
2022-12-27T20:59:07.915Z,13.70
2022-12-27T21:02:12.646Z,14.38
2022-12-27T21:05:14.704Z,12.20
2022-12-27T21:08:16.041Z,11.50
2022-12-27T21:11:22.919Z,14.20
2022-12-27T21:14:24.265Z,12.48
2022-12-27T21:17:25.630Z,14.43
2022-12-27T21:20:27.033Z,12.13
2022-12-27T21:23:31.543Z,13.73
2022-12-27T21:26:36.138Z,14.43
2022-12-27T21:29:37.487Z,13.77
2022-12-27T21:32:38.842Z,13.98
2022-12-27T21:35:40.190Z,13.80
2022-12-27T21:38:42.535Z,13.15
2022-12-27T21:41:43.928Z,14.80
2022-12-27T21:44:45.292Z,13.30
2022-12-27T21:47:46.687Z,13.73
2022-12-27T21:50:48.153Z,14.32
2022-12-27T21:53:50.274Z,14.90
2022-12-27T21:56:51.634Z,14.05
2022-12-27T21:59:52.959Z,15.20
2022-12-27T22:02:54.472Z,15.00
2022-12-27T22:05:56.064Z,14.15
2022-12-27T22:08:59.992Z,14.50
2022-12-27T22:12:01.349Z,14.82
2022-12-27T22:15:02.936Z,14.30
2022-12-27T22:18:04.480Z,14.55
2022-12-27T22:21:07.967Z,14.02
2022-12-27T22:24:12.840Z,13.60
2022-12-27T22:27:14.177Z,13.13
2022-12-27T22:30:15.556Z,11.10
2022-12-27T22:33:16.925Z,11.68
2022-12-27T22:36:24.058Z,11.82
2022-12-27T22:39:25.397Z,11.05
2022-12-27T22:42:26.762Z,10.85
2022-12-27T22:45:28.193Z,11.98
2022-12-27T22:48:29.579Z,11.80
2022-12-27T22:51:35.652Z,9.70
2022-12-27T22:55:04.140Z,10.35
2022-12-27T22:57:58.371Z,8.00
2022-12-27T23:00:59.743Z,8.30
2022-12-27T23:04:03.369Z,7.78
2022-12-27T23:07:04.750Z,7.45
2022-12-27T23:10:06.641Z,7.78
2022-12-27T23:13:07.991Z,7.40
2022-12-27T23:16:09.651Z,7.95
2022-12-27T23:19:16.912Z,6.90
2022-12-27T23:22:18.253Z,6.38
2022-12-27T23:25:19.601Z,6.22
2022-12-27T23:28:21.038Z,7.18
2022-12-27T23:31:25.342Z,6.38
2022-12-27T23:34:28.651Z,7.03
2022-12-27T23:37:30.609Z,6.75
2022-12-27T23:40:31.990Z,5.97
2022-12-27T23:43:53.969Z,4.78
2022-12-27T23:46:56.200Z,5.70
2022-12-27T23:49:57.583Z,4.90
2022-12-27T23:52:58.937Z,6.00
2022-12-27T23:56:17.239Z,5.07
2022-12-27T23:59:18.640Z,5.05
